Aérodrome :
LOGIN :

S'inscrire | Disclaimer

   EN    FR    IT 

 










Légende :    VFR   VFR Marginal   IFR   IFR Intensif   IFR Très Intensif
Visi : 
Plafond : 
>= 8 km
>= 3000ft
5 à 8 km
1000 à 3000 ft
1500m à 5 km
500 à 1000 ft
800 à 1500m
200 à 500 ft
< 800m
< 200 ft
Symboles :   Orages  Brouillard  Fortes neiges  Fortes précipitations  Vent > 20 kt
SIGMETs :   Divers  Orages  Givrage  Turbulence  Onde Orograph.  Cendres Volcan.







- Altitude de l'aérodrome : 1090 ft
- Code IATA : CFE
- Voir les cartes d'approche


LFLC - Clermont-Ferrand Auvergne

DERNIER METAR :
  • 161730Z AUTO 11004KT 060V150 9999 -RA FEW026/// SCT052/// BKN066/// ///CB 18/16 Q1016 TEMPO VRB20G35KT 2000 TSRA

METARs EXPIRÉS :
  • 161700Z AUTO 05011KT 9999 1900 +TSRA FEW022/// SCT036/// BKN058/// ///CB 19/17 Q1016 TEMPO VRB20G35KT 2000 TSRA
  • 161630Z AUTO 23008KT 9999 FEW056/// SCT078/// ///CB 21/16 Q1014 TEMPO VRB20G35KT 2000 TSRA
  • 161600Z AUTO 20006KT 170V240 9999 FEW058/// SCT170/// ///CB 21/17 Q1014 TEMPO VRB20G35KT 2000 TSRA
  • 161530Z AUTO 21006KT 160V240 9999 SCT058/// SCT078/// BKN160/// ///CB 21/17 Q1015 TEMPO VRB20G35KT 2000 TSRA
  • 161500Z AUTO 24006KT 9999 VCTS BKN062/// BKN072/// BKN140/// ///CB 20/18 Q1015 TEMPO VRB20G35KT 2000 TSRA

TAF TAF LFLC
Valide du 16 à 15h jusqu'au 17 à 15h UTC


161400Z 1615/1715 27008KT 9999 FEW040CB BKN080
PROB40
TEMPO 1615/1621 VRB20G35KT 2000 TSRA SCT010 BKN040CB
PROB30
TEMPO 1615/1617 TSGR
BECMG 1700/1703 CAVOK
ATIS : +33 4 73 62 74 38
Pas de NOTAMs connus pour ce terrain.
3 SIGMETs publiés pour la FIR Marseille (LFMM) :
 
Orages noyés dans la masse
LFMM SIGMET 25 VALID 161800/162000 LFPW
LFMM MARSEILLE FIR/UIR EMBD TS FCST WI N4345 E00730 - N4315 E00930 - N4145 E00930 - N4300 E00700 - N4345 E00730 TOP FL380 MOV E 20KT NC=
Orages noyés dans la masse
LFMM SIGMET 23 VALID 161600/161800 LFPW
LFMM MARSEILLE FIR/UIR EMBD TS FCST WI N4415 E00700 - N4400 E00700 - N4330 E00900 - N4230 E00615 - N4330 E00545 - N4415 E00700 TOP FL380 MOV E 20KT NC=
Turbulence forte
LFMM SIGMET 22 VALID 161600/162000 LFPW
LFMM MARSEILLE FIR/UIR SEV TURB FCST WI N4130 E00430 - N4200 E00430 - N4215 E00245 - N4230 E00230 - N4315 E00245 - N4400 E00315 - N4145 E00600 - N4130 E00430 SFC/FL060 STNR NC=



MET'MAP, la Météo Aéronautique d'un coup d'oeil ! - Copyright ORBIFLY Décembre 2007 - Disclaimer

ORBIFLY MET'MAP TEAM :

Programmation & Développement : Alexandra Zaïnal
Conception & Développement : Baudouin d'Aumeries
Co-Programmation & Développement : Marc-Olivier Méhu
Soutien technique & logistique : Manuel Goepfert

Contact : metmap@orbifly.com




SOURCES & CREDITS :

   NOAA